Time;durP1;ratioP1;P1;durP2;ratioP2;P2;SDS_P1;SDS_P2;PMS_P1;PMS_P2;Temp;Humidity;BMP_temperature;BMP_pressure;BME280_temperature;BME280_humidity;BME280_pressure;Samples;Min_cycle;Max_cycle;Signal;HPM_P1;HPM_P2
2023/04/03 00:00:30;;;;;;;1.80;1.00;;;12.10;80.90;;;;;;4923376;29;20031;-82
2023/04/03 00:02:55;;;;;;;2.33;1.00;;;12.10;80.80;;;;;;4923974;29;20115;-82
2023/04/03 00:05:21;;;;;;;1.92;0.95;;;12.10;81.00;;;;;;4923521;29;20118;-82
2023/04/03 00:07:46;;;;;;;2.17;0.80;;;12.10;80.70;;;;;;4922875;29;20027;-83
2023/04/03 00:10:13;;;;;;;6.50;1.27;;;12.10;81.50;;;;;;4923041;29;20534;-82
2023/04/03 00:12:39;;;;;;;6.53;1.48;;;12.10;81.30;;;;;;4923217;29;20023;-82
2023/04/03 00:15:05;;;;;;;9.65;1.80;;;12.10;78.70;;;;;;4922953;29;20027;-82
2023/04/03 00:17:30;;;;;;;6.97;1.58;;;12.10;78.30;;;;;;4922122;29;20028;-82
2023/04/03 00:19:56;;;;;;;8.98;1.70;;;12.00;76.40;;;;;;4937353;29;20028;-82
2023/04/03 00:22:21;;;;;;;7.05;1.30;;;12.00;75.40;;;;;;4922051;29;20389;-82
2023/04/03 00:24:46;;;;;;;8.10;1.65;;;12.00;74.60;;;;;;4921404;29;20110;-82
2023/04/03 00:27:12;;;;;;;6.47;1.90;;;12.00;74.10;;;;;;4920615;29;20027;-82
2023/04/03 00:29:37;;;;;;;5.32;1.67;;;12.00;72.80;;;;;;4920151;29;20035;-82
2023/04/03 00:32:03;;;;;;;6.18;1.50;;;11.90;72.50;;;;;;4920032;29;20019;-82
2023/04/03 00:34:29;;;;;;;7.68;1.73;;;12.00;73.00;;;;;;4920744;29;20037;-82
2023/04/03 00:36:54;;;;;;;9.40;1.20;;;12.00;73.50;;;;;;4922391;29;20036;-82
2023/04/03 00:41:48;;;;;;;2.83;1.10;;;11.90;71.90;;;;;;4970215;23;20087;-81
2023/04/03 00:44:44;;;;;;;5.25;1.70;;;11.90;72.40;;;;;;4939372;29;20023;-79
2023/04/03 00:47:13;;;;;;;3.97;1.20;;;11.90;71.60;;;;;;4939167;29;20062;-82
2023/04/03 00:49:40;;;;;;;3.35;1.40;;;12.00;71.10;;;;;;4956363;29;20031;-82
2023/04/03 00:52:09;;;;;;;4.85;1.30;;;11.90;72.20;;;;;;4938907;29;20035;-82
2023/04/03 00:54:37;;;;;;;3.97;1.30;;;11.90;71.00;;;;;;4938866;29;20027;-81
2023/04/03 00:57:04;;;;;;;4.03;1.20;;;11.90;71.00;;;;;;4939246;29;20452;-81
2023/04/03 00:59:36;;;;;;;3.45;1.20;;;11.90;71.70;;;;;;4956414;29;20037;-82
2023/04/03 01:02:02;;;;;;;3.85;1.25;;;11.90;70.00;;;;;;4938632;29;20122;-80
2023/04/03 01:04:39;;;;;;;5.22;1.40;;;11.90;71.20;;;;;;4938793;29;20062;-81
2023/04/03 01:07:16;;;;;;;4.25;1.30;;;11.90;70.30;;;;;;4938935;29;20027;-82
2023/04/03 01:09:42;;;;;;;4.35;1.60;;;11.90;70.60;;;;;;4938802;29;20031;-81
2023/04/03 01:12:20;;;;;;;3.97;1.27;;;11.90;69.70;;;;;;4938382;29;20548;-80
2023/04/03 01:14:49;;;;;;;5.00;1.38;;;11.90;70.20;;;;;;4939119;29;20038;-81
2023/04/03 01:17:34;;;;;;;4.63;1.40;;;11.80;68.30;;;;;;4939262;29;20027;-81
2023/04/03 01:20:25;;;;;;;2.60;1.20;;;11.80;68.30;;;;;;4938529;29;20109;-81
2023/04/03 01:23:12;;;;;;;4.55;1.15;;;11.80;69.50;;;;;;4939329;29;20057;-81
2023/04/03 01:25:49;;;;;;;3.28;1.20;;;11.80;68.60;;;;;;4938777;29;20559;-81
2023/04/03 01:28:19;;;;;;;4.55;1.25;;;11.80;69.30;;;;;;4938641;29;20023;-81
2023/04/03 01:30:59;;;;;;;4.00;1.10;;;11.80;68.70;;;;;;4938626;29;20031;-81
2023/04/03 01:33:25;;;;;;;2.85;1.23;;;11.80;68.40;;;;;;4938708;29;20062;-83
2023/04/03 01:35:50;;;;;;;6.03;1.52;;;11.70;67.60;;;;;;4938458;29;20062;-81
2023/04/03 01:38:16;;;;;;;3.22;1.10;;;11.80;68.80;;;;;;4955922;29;20045;-81
2023/04/03 01:40:41;;;;;;;3.17;1.30;;;11.80;68.40;;;;;;4955126;29;20399;-81
2023/04/03 01:43:08;;;;;;;4.10;1.33;;;11.80;67.50;;;;;;4938656;29;20055;-81
2023/04/03 01:45:33;;;;;;;3.38;1.30;;;11.80;67.00;;;;;;4938376;29;20074;-81
2023/04/03 01:47:59;;;;;;;5.63;1.40;;;11.80;67.00;;;;;;4955782;29;20019;-81
2023/04/03 01:50:24;;;;;;;4.88;1.35;;;11.70;67.60;;;;;;4937610;29;20030;-81
2023/04/03 01:52:50;;;;;;;5.20;1.65;;;11.70;67.10;;;;;;4937773;29;20027;-81
2023/04/03 01:55:16;;;;;;;4.20;1.30;;;11.70;67.20;;;;;;4955013;29;20541;-81
2023/04/03 01:57:41;;;;;;;5.78;1.50;;;11.70;67.60;;;;;;4955543;29;20154;-81
2023/04/03 02:00:07;;;;;;;3.90;1.40;;;11.70;66.90;;;;;;4938010;29;20042;-80
2023/04/03 02:02:33;;;;;;;4.10;1.45;;;11.70;66.60;;;;;;4937953;29;20019;-81
2023/04/03 02:04:58;;;;;;;6.15;2.08;;;11.70;66.40;;;;;;4937959;29;20026;-81
2023/04/03 02:07:24;;;;;;;5.82;1.92;;;11.70;65.80;;;;;;4938279;29;20027;-81
2023/04/03 02:09:50;;;;;;;6.95;2.45;;;11.70;66.40;;;;;;4938511;29;20403;-81
2023/04/03 02:12:15;;;;;;;6.95;2.13;;;11.70;66.80;;;;;;4954771;29;20074;-81
2023/04/03 02:14:41;;;;;;;6.55;2.63;;;11.70;66.10;;;;;;4958900;28;20034;-81
2023/04/03 02:17:08;;;;;;;7.95;2.40;;;11.70;65.90;;;;;;4938129;29;20027;-81
2023/04/03 02:19:35;;;;;;;6.25;2.10;;;11.70;65.80;;;;;;4938049;29;20023;-81
2023/04/03 02:22:01;;;;;;;6.85;2.53;;;11.70;65.20;;;;;;4955795;29;20106;-81
2023/04/03 02:24:27;;;;;;;5.25;2.00;;;11.70;65.30;;;;;;4937737;29;20110;-81
2023/04/03 02:26:52;;;;;;;5.75;2.03;;;11.70;65.70;;;;;;4954873;29;20496;-80
2023/04/03 02:29:18;;;;;;;6.57;2.30;;;11.70;65.30;;;;;;4938387;29;20031;-80
2023/04/03 02:31:44;;;;;;;7.15;1.90;;;11.60;65.20;;;;;;4941436;29;20063;-78
2023/04/03 02:34:10;;;;;;;5.70;2.03;;;11.60;65.30;;;;;;4941349;29;20026;-80
2023/04/03 02:36:35;;;;;;;7.05;2.20;;;11.70;65.60;;;;;;4941277;29;20023;-81
2023/04/03 02:39:01;;;;;;;5.32;1.60;;;11.60;64.70;;;;;;4958993;29;20564;-81
2023/04/03 02:41:33;;;;;;;4.03;1.55;;;11.60;65.10;;;;;;4940850;29;20042;-80
2023/04/03 02:43:58;;;;;;;6.07;1.90;;;11.60;64.40;;;;;;4941363;29;20027;-81
2023/04/03 02:46:24;;;;;;;5.65;1.52;;;11.60;64.70;;;;;;4940968;29;20024;-81
2023/04/03 02:48:49;;;;;;;4.63;1.77;;;11.60;64.30;;;;;;4941096;29;20030;-80
2023/04/03 02:51:15;;;;;;;3.83;1.63;;;11.60;64.60;;;;;;4940917;29;20080;-81
2023/04/03 02:53:40;;;;;;;5.00;1.60;;;11.60;64.20;;;;;;4941478;29;20106;-81
2023/04/03 02:56:06;;;;;;;4.70;1.63;;;11.60;64.80;;;;;;4941397;29;20031;-80
2023/04/03 02:58:31;;;;;;;5.65;1.67;;;11.70;64.50;;;;;;4958236;29;20476;-81
2023/04/03 03:00:57;;;;;;;3.45;1.20;;;11.60;63.90;;;;;;4940855;29;20058;-81
2023/04/03 03:03:22;;;;;;;5.68;1.70;;;11.60;64.40;;;;;;4940824;29;20023;-81
2023/04/03 03:05:48;;;;;;;4.47;1.30;;;11.60;64.30;;;;;;4940816;29;20023;-81
2023/04/03 03:08:14;;;;;;;4.38;1.35;;;11.50;64.00;;;;;;4940784;29;20027;-81
2023/04/03 03:10:39;;;;;;;5.82;1.65;;;11.50;63.90;;;;;;4940684;29;20027;-80
2023/04/03 03:13:05;;;;;;;4.35;1.48;;;11.60;63.50;;;;;;4940842;29;20078;-81
2023/04/03 03:15:31;;;;;;;4.57;1.50;;;11.60;63.60;;;;;;4940879;29;20042;-80
2023/04/03 03:17:56;;;;;;;5.53;1.65;;;11.60;64.00;;;;;;4957810;29;20038;-81
2023/04/03 03:20:22;;;;;;;4.28;1.45;;;11.60;63.50;;;;;;4958013;29;20571;-80
2023/04/03 03:22:47;;;;;;;4.70;1.73;;;11.60;63.00;;;;;;4940669;29;20552;-81
2023/04/03 03:25:13;;;;;;;4.22;1.42;;;11.50;64.00;;;;;;4958158;29;20027;-81
2023/04/03 03:27:39;;;;;;;4.75;1.40;;;11.50;63.00;;;;;;4940937;29;20027;-80
2023/04/03 03:30:05;;;;;;;4.63;1.30;;;11.50;62.70;;;;;;4940648;29;20088;-79
2023/04/03 03:32:31;;;;;;;6.55;1.90;;;11.50;63.20;;;;;;4957912;29;20023;-80
2023/04/03 03:34:56;;;;;;;12.70;2.13;;;11.50;63.60;;;;;;4958071;29;20106;-81
2023/04/03 03:37:22;;;;;;;8.40;1.80;;;11.50;62.90;;;;;;4940380;29;20571;-79
2023/04/03 03:39:47;;;;;;;13.23;2.28;;;11.50;62.50;;;;;;4940471;29;20118;-81
2023/04/03 03:42:13;;;;;;;10.82;1.80;;;11.50;62.50;;;;;;4939342;29;20026;-81
2023/04/03 03:44:38;;;;;;;6.75;1.80;;;11.50;62.30;;;;;;4940506;29;20022;-81
2023/04/03 03:47:05;;;;;;;6.78;1.50;;;11.50;61.90;;;;;;4940304;29;20023;-79
2023/04/03 03:49:31;;;;;;;6.38;1.70;;;11.40;62.70;;;;;;4940595;29;20035;-80
2023/04/03 03:51:56;;;;;;;5.15;1.52;;;11.50;62.80;;;;;;4957690;29;20027;-79
2023/04/03 03:54:22;;;;;;;7.32;1.60;;;11.40;62.90;;;;;;4957662;29;20361;-80
2023/04/03 03:56:47;;;;;;;4.78;1.40;;;11.40;62.20;;;;;;4940133;29;20027;-81
2023/04/03 03:59:13;;;;;;;6.10;1.40;;;11.40;62.40;;;;;;4940548;29;20027;-83
2023/04/03 04:01:39;;;;;;;4.60;1.40;;;11.40;61.80;;;;;;4939822;29;20082;-81
2023/04/03 04:04:05;;;;;;;4.90;1.35;;;11.40;61.70;;;;;;4939878;29;20051;-81
2023/04/03 04:06:30;;;;;;;5.97;1.85;;;11.40;62.10;;;;;;4957516;29;20543;-80
2023/04/03 04:08:56;;;;;;;5.53;1.58;;;11.40;61.80;;;;;;4940055;29;20038;-80
2023/04/03 04:11:21;;;;;;;6.75;1.50;;;11.40;62.10;;;;;;4956610;29;20086;-80
2023/04/03 04:13:47;;;;;;;6.45;1.30;;;11.40;61.80;;;;;;4938542;29;20058;-81
2023/04/03 04:16:12;;;;;;;5.15;1.73;;;11.40;61.80;;;;;;4939417;29;20034;-81
2023/04/03 04:18:38;;;;;;;6.20;1.50;;;11.40;62.40;;;;;;4939599;29;20043;-81
2023/04/03 04:21:03;;;;;;;5.95;2.22;;;11.40;61.80;;;;;;4939189;29;20023;-80
2023/04/03 04:23:29;;;;;;;4.88;1.60;;;11.40;61.80;;;;;;4938543;29;20063;-80
2023/04/03 04:25:54;;;;;;;7.65;1.73;;;11.40;61.80;;;;;;4939294;29;20023;-82
2023/04/03 04:28:20;;;;;;;5.00;1.50;;;11.30;61.50;;;;;;4956849;29;20042;-81
2023/04/03 04:30:45;;;;;;;5.90;1.55;;;11.30;62.10;;;;;;4938578;29;20082;-82
2023/04/03 04:33:11;;;;;;;4.97;1.50;;;11.30;61.70;;;;;;4936566;29;20031;-80
2023/04/03 04:35:36;;;;;;;5.03;1.70;;;11.30;61.60;;;;;;4935633;28;20121;-81
2023/04/03 04:38:02;;;;;;;4.82;1.40;;;11.40;62.00;;;;;;4939302;29;20038;-81
2023/04/03 04:40:28;;;;;;;4.30;1.40;;;11.40;61.80;;;;;;4939211;29;20528;-82
2023/04/03 04:42:54;;;;;;;4.47;1.65;;;11.30;61.70;;;;;;4956202;29;20035;-82
2023/04/03 04:45:20;;;;;;;4.20;1.70;;;11.30;61.40;;;;;;4938396;29;20054;-82
2023/04/03 04:47:45;;;;;;;4.80;1.30;;;11.30;61.70;;;;;;4938746;29;20106;-80
2023/04/03 04:50:11;;;;;;;4.07;1.30;;;11.40;62.00;;;;;;4955459;29;20031;-81
2023/04/03 04:52:37;;;;;;;5.45;1.95;;;11.30;61.60;;;;;;4938367;29;20214;-82
2023/04/03 04:55:02;;;;;;;4.95;1.67;;;11.30;61.50;;;;;;4938618;29;20062;-82
2023/04/03 04:57:28;;;;;;;6.25;1.50;;;11.30;61.50;;;;;;4939453;29;20035;-83
2023/04/03 04:59:53;;;;;;;4.32;1.30;;;11.30;61.70;;;;;;4938877;29;20031;-81
2023/04/03 05:02:19;;;;;;;4.90;1.60;;;11.30;61.40;;;;;;4939340;29;20476;-84
2023/04/03 05:04:44;;;;;;;6.10;1.48;;;11.30;61.40;;;;;;4936547;29;20027;-78
2023/04/03 05:07:10;;;;;;;4.97;1.60;;;11.30;61.40;;;;;;4937009;29;20027;-81
2023/04/03 05:09:36;;;;;;;4.60;1.42;;;11.30;61.90;;;;;;4954320;29;20086;-81
2023/04/03 05:12:02;;;;;;;4.97;1.50;;;11.30;61.20;;;;;;4954021;29;20519;-83
2023/04/03 05:14:28;;;;;;;5.13;1.60;;;11.30;61.30;;;;;;4937286;29;20037;-82
2023/04/03 05:16:53;;;;;;;6.80;1.88;;;11.20;61.10;;;;;;4937835;29;20023;-83
2023/04/03 05:19:20;;;;;;;7.65;2.13;;;11.20;61.00;;;;;;4937378;29;20380;-81
2023/04/03 05:21:46;;;;;;;5.05;1.60;;;11.20;60.60;;;;;;4954949;29;20055;-82
2023/04/03 05:24:11;;;;;;;5.22;1.80;;;11.20;61.20;;;;;;4937962;29;20073;-82
2023/04/03 05:26:37;;;;;;;4.63;1.65;;;11.30;61.10;;;;;;4954304;29;20038;-82
2023/04/03 05:29:02;;;;;;;6.32;2.03;;;11.20;60.70;;;;;;4954243;29;20443;-84
2023/04/03 05:31:29;;;;;;;6.07;1.65;;;11.20;60.50;;;;;;4936715;29;20024;-81
2023/04/03 05:33:55;;;;;;;5.13;2.10;;;11.20;61.20;;;;;;4939867;29;20031;-81
2023/04/03 05:36:21;;;;;;;6.22;1.80;;;11.30;60.80;;;;;;4956176;29;20127;-84
2023/04/03 05:38:46;;;;;;;11.50;2.20;;;11.20;60.90;;;;;;4940273;29;20035;-82
2023/04/03 05:57:42;;;;;;;9.05;1.88;;;11.50;64.60;;;;;;4829596;29;20493;-79
2023/04/03 06:00:15;;;;;;;6.93;1.90;;;11.50;64.60;;;;;;4908527;29;20052;-80
2023/04/03 06:05:52;;;;;;;7.15;1.67;;;11.50;64.90;;;;;;4908573;29;20043;-80
2023/04/03 06:08:19;;;;;;;8.77;2.10;;;11.50;65.80;;;;;;4900980;29;20141;-81
2023/04/03 06:10:51;;;;;;;7.38;2.00;;;11.60;66.00;;;;;;4910043;29;20084;-80
2023/04/03 06:13:38;;;;;;;9.65;1.92;;;11.60;66.00;;;;;;4895020;29;20093;-80
2023/04/03 06:19:02;;;;;;;7.15;1.77;;;11.60;66.60;;;;;;4923509;29;20078;-81
2023/04/03 06:21:42;;;;;;;6.87;2.20;;;11.70;66.70;;;;;;4923675;29;20515;-81
2023/04/03 06:24:37;;;;;;;4.63;1.52;;;11.60;66.80;;;;;;4933818;29;20047;-80
2023/04/03 06:27:40;;;;;;;4.93;1.60;;;11.70;66.90;;;;;;4932669;29;20036;-80
2023/04/03 06:33:51;;;;;;;5.43;1.50;;;11.80;67.50;;;;;;4948514;29;20027;-80
2023/04/03 06:36:20;;;;;;;2.63;1.17;;;11.80;67.70;;;;;;4916174;29;20040;-82
2023/04/03 06:39:20;;;;;;;3.40;1.30;;;11.90;67.80;;;;;;4930822;29;20036;-80
2023/04/03 06:41:46;;;;;;;5.22;1.40;;;11.90;67.90;;;;;;4948355;23;20066;-82
2023/04/03 06:44:13;;;;;;;6.60;1.92;;;12.00;68.00;;;;;;4937895;29;20031;-81
2023/04/03 06:46:39;;;;;;;4.93;1.55;;;12.00;68.00;;;;;;4939542;29;20031;-83
2023/04/03 06:49:07;;;;;;;7.13;1.88;;;12.00;68.20;;;;;;4957124;29;20030;-82
2023/04/03 06:51:33;;;;;;;4.40;1.50;;;12.10;68.70;;;;;;4939063;29;20031;-83
2023/04/03 06:54:00;;;;;;;5.13;1.60;;;12.10;68.70;;;;;;4939608;29;20057;-82
2023/04/03 06:56:26;;;;;;;4.45;1.80;;;12.10;68.80;;;;;;4939227;29;20034;-82
2023/04/03 06:59:00;;;;;;;4.30;1.42;;;12.10;69.20;;;;;;4939221;29;20400;-81
2023/04/03 07:01:27;;;;;;;5.13;1.80;;;12.20;69.20;;;;;;4938876;29;20492;-81
2023/04/03 07:03:53;;;;;;;6.63;1.70;;;12.20;69.30;;;;;;4938626;29;20065;-83
2023/04/03 07:06:19;;;;;;;4.53;1.80;;;12.20;69.40;;;;;;4939122;29;20027;-82
2023/04/03 07:08:47;;;;;;;5.40;1.48;;;12.30;69.50;;;;;;4938845;29;20055;-81
2023/04/03 07:11:13;;;;;;;2.85;1.25;;;12.30;70.00;;;;;;4937710;29;20115;-81
2023/04/03 07:13:39;;;;;;;5.13;1.58;;;12.40;70.70;;;;;;4938601;29;20046;-81
2023/04/03 07:16:06;;;;;;;4.88;1.55;;;12.40;70.90;;;;;;4939344;29;20434;-81
2023/04/03 07:18:33;;;;;;;3.08;1.20;;;12.40;69.90;;;;;;4940034;29;20514;-81
2023/04/03 07:20:58;;;;;;;4.47;1.45;;;12.40;70.70;;;;;;4958479;29;20054;-81
2023/04/03 07:23:24;;;;;;;3.30;1.40;;;12.50;71.30;;;;;;4941737;29;20476;-82
2023/04/03 07:25:51;;;;;;;4.47;1.38;;;12.50;71.50;;;;;;4941669;29;20039;-81
2023/04/03 07:28:19;;;;;;;3.60;1.38;;;12.50;71.10;;;;;;4941596;29;20027;-83
2023/04/03 07:30:45;;;;;;;3.35;1.40;;;12.50;70.50;;;;;;4940849;29;20023;-81
2023/04/03 07:33:11;;;;;;;3.97;1.30;;;12.60;70.10;;;;;;4941351;29;20043;-82
2023/04/03 07:35:37;;;;;;;6.07;1.52;;;12.60;70.10;;;;;;4958072;29;20038;-80
2023/04/03 07:38:03;;;;;;;4.55;1.63;;;12.60;70.20;;;;;;4940857;29;20031;-81
2023/04/03 07:40:28;;;;;;;4.00;1.38;;;12.70;70.10;;;;;;4939476;29;20042;-81
2023/04/03 07:42:56;;;;;;;5.10;1.50;;;12.70;69.90;;;;;;4939713;29;20019;-81
2023/04/03 07:45:22;;;;;;;5.13;1.63;;;12.70;69.90;;;;;;4939408;29;20058;-81
2023/04/03 07:47:48;;;;;;;4.05;1.58;;;12.70;69.80;;;;;;4939788;29;20484;-81
2023/04/03 07:50:14;;;;;;;3.25;1.23;;;12.70;69.70;;;;;;4939223;29;20066;-81
2023/04/03 07:52:40;;;;;;;3.03;1.30;;;12.70;69.70;;;;;;4956875;29;20027;-81
2023/04/03 07:55:06;;;;;;;6.28;1.65;;;12.80;69.80;;;;;;4957843;29;20055;-81
2023/04/03 07:57:31;;;;;;;3.42;1.42;;;12.80;69.80;;;;;;4957349;29;20091;-81
2023/04/03 07:59:57;;;;;;;3.25;1.33;;;12.80;69.90;;;;;;4940207;29;20433;-81
2023/04/03 08:02:22;;;;;;;4.25;1.33;;;12.90;69.70;;;;;;4939967;29;20019;-81
2023/04/03 08:04:48;;;;;;;4.18;1.27;;;12.90;69.70;;;;;;4957250;29;20031;-81
2023/04/03 08:07:13;;;;;;;4.25;1.40;;;12.90;69.80;;;;;;4957003;29;20027;-81
2023/04/03 08:09:39;;;;;;;4.05;1.33;;;12.90;69.80;;;;;;4956211;29;20032;-82
2023/04/03 08:12:04;;;;;;;3.83;1.42;;;13.00;69.80;;;;;;4938894;29;20087;-82
2023/04/03 08:14:34;;;;;;;3.90;1.60;;;13.00;70.00;;;;;;4956847;29;20027;-82
2023/04/03 08:17:00;;;;;;;3.92;1.30;;;13.00;70.20;;;;;;4939580;29;20058;-82
2023/04/03 08:19:26;;;;;;;3.22;1.17;;;13.00;69.80;;;;;;4955873;29;20027;-81
2023/04/03 08:21:53;;;;;;;3.60;1.50;;;13.10;70.20;;;;;;4955714;29;20035;-81
2023/04/03 08:24:19;;;;;;;3.53;1.48;;;13.10;69.80;;;;;;4938837;29;20019;-81
2023/04/03 08:26:44;;;;;;;3.83;1.30;;;13.10;69.90;;;;;;4955496;28;20030;-81
2023/04/03 08:29:10;;;;;;;3.80;1.30;;;13.10;69.60;;;;;;4939129;29;20038;-82
2023/04/03 08:31:35;;;;;;;3.88;1.40;;;13.20;69.90;;;;;;4938683;29;20039;-81
2023/04/03 08:34:01;;;;;;;3.20;1.15;;;13.20;70.10;;;;;;4955587;29;20023;-81
2023/04/03 08:36:28;;;;;;;4.15;1.30;;;13.20;69.90;;;;;;4956113;29;20062;-82
2023/04/03 08:38:55;;;;;;;3.80;1.20;;;13.20;69.90;;;;;;4938806;29;20094;-81
2023/04/03 08:41:39;;;;;;;3.45;1.38;;;13.20;69.90;;;;;;4955747;29;20035;-81
2023/04/03 08:44:31;;;;;;;2.80;1.10;;;13.30;70.00;;;;;;4938742;29;20281;-81
2023/04/03 08:47:21;;;;;;;4.20;1.30;;;13.30;70.00;;;;;;4938370;29;20097;-81
2023/04/03 08:49:59;;;;;;;3.38;1.25;;;13.30;70.20;;;;;;4938348;29;20035;-81
2023/04/03 08:52:41;;;;;;;3.20;1.30;;;13.30;69.80;;;;;;4938097;29;20261;-81
2023/04/03 08:55:33;;;;;;;3.47;1.20;;;13.30;70.00;;;;;;4955160;29;20031;-80
2023/04/03 08:58:16;;;;;;;3.67;1.30;;;13.40;70.20;;;;;;4955046;29;20027;-81
2023/04/03 09:00:50;;;;;;;4.65;1.50;;;13.40;70.30;;;;;;4937760;29;20031;-81
2023/04/03 09:03:19;;;;;;;3.25;1.30;;;13.40;70.20;;;;;;4938063;29;20023;-82
2023/04/03 09:06:17;;;;;;;2.63;1.17;;;13.40;69.90;;;;;;4938086;29;20114;-80
2023/04/03 09:09:11;;;;;;;2.72;1.20;;;13.40;70.30;;;;;;4929911;29;20040;-81
2023/04/03 09:12:00;;;;;;;3.63;1.40;;;13.40;70.10;;;;;;4937068;29;20027;-81
2023/04/03 09:14:41;;;;;;;3.20;1.23;;;13.50;70.00;;;;;;4937952;29;20095;-81
2023/04/03 09:17:24;;;;;;;3.63;1.30;;;13.40;70.40;;;;;;4937683;29;20033;-81
2023/04/03 09:20:07;;;;;;;3.17;1.35;;;13.50;70.80;;;;;;4937434;29;20028;-81
2023/04/03 09:22:37;;;;;;;2.80;1.15;;;13.40;70.80;;;;;;4954678;29;20023;-81
2023/04/03 09:25:12;;;;;;;2.95;1.27;;;13.50;70.80;;;;;;4937552;29;20027;-81
2023/04/03 09:27:38;;;;;;;3.25;1.40;;;13.50;70.20;;;;;;4939160;29;20023;-83
2023/04/03 09:30:06;;;;;;;3.35;1.30;;;13.50;70.30;;;;;;4940192;29;20078;-81
2023/04/03 09:32:34;;;;;;;3.58;1.20;;;13.50;70.80;;;;;;4957580;29;20050;-83
2023/04/03 09:35:14;;;;;;;2.55;1.10;;;13.50;70.90;;;;;;4940453;29;20034;-82
2023/04/03 09:37:42;;;;;;;2.33;1.10;;;13.50;71.00;;;;;;4957233;29;20027;-82
2023/04/03 09:40:26;;;;;;;2.10;1.00;;;13.50;71.10;;;;;;4939375;29;20027;-81
2023/04/03 09:42:57;;;;;;;3.35;1.30;;;13.50;70.90;;;;;;4940255;29;20027;-82
2023/04/03 09:45:25;;;;;;;2.72;1.13;;;13.50;71.10;;;;;;4939888;29;20456;-81
2023/04/03 09:48:28;;;;;;;2.50;1.15;;;13.60;71.20;;;;;;4939421;29;20396;-82
2023/04/03 09:50:59;;;;;;;2.53;1.08;;;13.60;71.10;;;;;;4931717;29;20059;-82
2023/04/03 09:53:35;;;;;;;2.97;1.13;;;13.60;71.10;;;;;;4939702;29;20028;-81
2023/04/03 09:56:17;;;;;;;3.33;1.33;;;13.60;71.40;;;;;;4938998;29;20082;-81
2023/04/03 09:58:45;;;;;;;3.60;1.20;;;13.60;71.60;;;;;;4939492;29;20094;-82
2023/04/03 10:01:27;;;;;;;3.80;1.10;;;13.60;71.10;;;;;;4956023;29;20030;-82
2023/04/03 10:04:12;;;;;;;2.53;0.98;;;13.60;71.00;;;;;;4939062;29;20028;-82
2023/04/03 10:06:47;;;;;;;2.85;1.00;;;13.60;71.20;;;;;;4939005;29;20064;-81
2023/04/03 10:09:23;;;;;;;2.20;0.93;;;13.60;71.20;;;;;;4939179;29;20579;-82
2023/04/03 10:12:04;;;;;;;1.77;1.10;;;13.60;71.10;;;;;;4938210;29;20034;-81
2023/04/03 10:14:31;;;;;;;3.33;1.20;;;13.60;71.10;;;;;;4938429;29;20082;-81
2023/04/03 10:17:20;;;;;;;2.63;1.17;;;13.60;71.40;;;;;;4936844;29;20032;-81
2023/04/03 10:19:52;;;;;;;2.15;0.90;;;13.60;71.40;;;;;;4937864;29;20039;-82
2023/04/03 10:22:39;;;;;;;2.38;1.10;;;13.60;71.80;;;;;;4940165;29;20027;-82
2023/04/03 10:25:22;;;;;;;1.88;0.93;;;13.60;71.50;;;;;;4939752;29;20031;-82
2023/04/03 10:28:00;;;;;;;2.13;0.90;;;13.50;72.30;;;;;;4954096;29;20019;-81
2023/04/03 10:30:28;;;;;;;2.58;1.10;;;13.50;72.20;;;;;;4939112;29;20037;-82
2023/04/03 10:33:29;;;;;;;2.58;1.08;;;13.50;72.00;;;;;;4956897;29;20036;-82
2023/04/03 10:36:09;;;;;;;2.90;1.00;;;13.50;72.70;;;;;;4957034;29;20031;-82
2023/04/03 10:38:54;;;;;;;1.73;0.85;;;13.40;72.00;;;;;;4939296;29;20377;-83
2023/04/03 10:41:44;;;;;;;2.30;0.88;;;13.40;72.10;;;;;;4939173;29;20031;-81
2023/04/03 10:44:42;;;;;;;2.15;0.80;;;13.40;71.70;;;;;;4938842;29;20027;-81
2023/04/03 10:47:07;;;;;;;2.70;1.00;;;13.40;71.70;;;;;;4939057;29;20132;-81
2023/04/03 10:49:43;;;;;;;2.55;1.00;;;13.50;71.70;;;;;;4938808;28;20067;-81
2023/04/03 10:52:29;;;;;;;1.65;0.93;;;13.50;72.90;;;;;;4942387;29;20027;-82
2023/04/03 10:55:07;;;;;;;2.42;1.00;;;13.50;72.20;;;;;;4942364;29;20023;-81
2023/04/03 10:57:32;;;;;;;2.30;1.00;;;13.40;71.60;;;;;;4942316;29;20031;-81
2023/04/03 11:00:04;;;;;;;1.85;1.00;;;13.50;71.60;;;;;;4941752;29;20034;-79
2023/04/03 11:02:32;;;;;;;2.10;0.98;;;13.40;71.90;;;;;;4941973;29;20159;-81
2023/04/03 11:05:04;;;;;;;2.58;0.90;;;13.40;71.90;;;;;;4958869;29;20035;-81
2023/04/03 11:07:38;;;;;;;2.47;1.15;;;13.40;72.00;;;;;;4941732;29;20059;-82
2023/04/03 11:10:13;;;;;;;2.08;0.95;;;13.40;72.10;;;;;;4941282;29;20118;-81
2023/04/03 11:12:56;;;;;;;2.08;0.90;;;13.20;72.10;;;;;;4958557;29;20023;-81
2023/04/03 11:15:33;;;;;;;2.17;0.80;;;13.30;71.90;;;;;;4941659;29;20502;-81
2023/04/03 11:18:02;;;;;;;1.35;0.70;;;13.20;72.00;;;;;;4941392;29;20122;-83
2023/04/03 11:20:33;;;;;;;2.15;0.90;;;13.20;72.00;;;;;;4940800;29;20038;-81
2023/04/03 11:23:24;;;;;;;1.98;0.70;;;13.20;72.30;;;;;;4941130;29;20020;-82
2023/04/03 11:25:53;;;;;;;2.13;0.80;;;13.20;72.40;;;;;;4958242;29;20023;-81
2023/04/03 11:28:19;;;;;;;3.03;1.30;;;13.10;72.30;;;;;;4958285;29;20508;-82
2023/04/03 11:31:25;;;;;;;1.48;0.80;;;13.20;72.30;;;;;;4940675;29;20113;-81
2023/04/03 11:34:34;;;;;;;1.45;0.80;;;13.10;72.40;;;;;;4940477;29;20400;-81
2023/04/03 11:37:01;;;;;;;1.63;0.82;;;13.10;72.50;;;;;;4940662;29;20031;-82
2023/04/03 11:39:33;;;;;;;1.65;0.80;;;13.10;72.50;;;;;;4939833;29;20028;-81
2023/04/03 11:42:34;;;;;;;2.33;0.90;;;13.10;72.40;;;;;;4939560;29;20034;-81
2023/04/03 11:45:25;;;;;;;1.80;0.80;;;13.10;72.50;;;;;;4940089;29;20034;-81
2023/04/03 11:47:53;;;;;;;1.30;0.80;;;13.20;72.70;;;;;;4940151;29;20024;-81
2023/04/03 11:50:34;;;;;;;1.40;0.80;;;13.20;72.30;;;;;;4939584;29;20023;-81
2023/04/03 11:53:06;;;;;;;1.85;0.70;;;13.20;72.60;;;;;;4940097;29;20054;-81
2023/04/03 11:55:31;;;;;;;2.10;0.90;;;13.20;72.40;;;;;;4940497;29;20523;-81
2023/04/03 11:58:02;;;;;;;1.13;0.73;;;13.30;72.40;;;;;;4956348;29;20058;-81
2023/04/03 12:00:43;;;;;;;1.90;1.00;;;13.20;72.30;;;;;;4956211;29;20030;-80
2023/04/03 12:05:55;;;;;;;1.80;0.88;;;13.30;73.10;;;;;;4956635;29;20117;-81
2023/04/03 12:08:47;;;;;;;2.03;0.93;;;13.30;72.80;;;;;;4939443;29;20119;-82
2023/04/03 12:11:12;;;;;;;1.48;0.70;;;13.40;72.50;;;;;;4938856;29;20035;-82
2023/04/03 12:13:41;;;;;;;1.35;0.70;;;13.40;73.20;;;;;;4956375;29;20054;-81
2023/04/03 12:16:38;;;;;;;1.45;0.80;;;13.40;72.50;;;;;;4938860;29;20027;-82
2023/04/03 12:19:23;;;;;;;2.22;0.90;;;13.40;72.50;;;;;;4919425;29;20070;-82
2023/04/03 12:21:48;;;;;;;1.80;0.75;;;13.40;72.90;;;;;;4956280;29;20082;-83
2023/04/03 12:24:16;;;;;;;2.17;0.88;;;13.40;72.90;;;;;;4939306;29;20043;-81
2023/04/03 12:26:51;;;;;;;1.52;0.70;;;13.40;72.50;;;;;;4939297;29;20061;-81
2023/04/03 12:29:41;;;;;;;1.95;0.88;;;13.40;72.30;;;;;;4938918;29;20023;-81
2023/04/03 12:32:29;;;;;;;1.80;0.85;;;13.40;72.40;;;;;;4938562;29;20035;-81
2023/04/03 12:35:08;;;;;;;1.45;0.75;;;13.40;72.40;;;;;;4938657;29;20023;-81
2023/04/03 12:38:11;;;;;;;1.45;0.80;;;13.30;72.60;;;;;;4938355;29;20054;-81
2023/04/03 12:40:37;;;;;;;1.70;0.87;;;13.30;72.70;;;;;;4961909;23;20034;-80
2023/04/03 12:43:26;;;;;;;1.55;0.82;;;13.30;72.70;;;;;;4937402;29;20035;-82
2023/04/03 12:45:59;;;;;;;1.70;0.80;;;13.30;72.70;;;;;;4935474;29;20023;-81
2023/04/03 12:48:27;;;;;;;2.38;0.80;;;13.30;72.70;;;;;;4938406;29;20035;-81
2023/04/03 12:50:53;;;;;;;2.38;0.80;;;13.30;72.50;;;;;;4938151;29;20055;-80
2023/04/03 12:53:24;;;;;;;1.98;0.90;;;13.30;72.50;;;;;;4938378;29;20025;-83
2023/04/03 12:55:55;;;;;;;2.15;0.90;;;13.30;72.80;;;;;;4938124;29;20118;-81
2023/04/03 12:58:28;;;;;;;1.55;0.77;;;13.20;72.60;;;;;;4938286;29;20484;-81
2023/04/03 13:01:14;;;;;;;1.48;0.70;;;13.20;72.80;;;;;;4937628;29;20087;-81
2023/04/03 13:03:44;;;;;;;1.95;0.85;;;13.20;72.90;;;;;;4937878;29;20031;-81
2023/04/03 13:06:32;;;;;;;2.25;1.00;;;13.20;72.90;;;;;;4955224;29;20027;-82
2023/04/03 13:09:00;;;;;;;2.38;0.85;;;13.10;72.90;;;;;;4937988;29;20559;-81
2023/04/03 13:11:30;;;;;;;2.67;0.90;;;13.20;73.00;;;;;;4937441;29;20032;-81
2023/04/03 13:13:56;;;;;;;1.70;0.90;;;13.20;72.90;;;;;;4937445;29;20381;-81
2023/04/03 13:16:22;;;;;;;1.45;0.60;;;13.20;73.10;;;;;;4937848;29;20042;-81
2023/04/03 13:18:54;;;;;;;1.80;0.73;;;13.10;72.90;;;;;;4937979;29;20215;-80
2023/04/03 13:21:30;;;;;;;1.48;0.70;;;13.10;73.10;;;;;;4937324;29;20106;-81
2023/04/03 13:24:00;;;;;;;1.45;0.70;;;13.10;73.10;;;;;;4954762;29;20027;-81
2023/04/03 13:26:30;;;;;;;2.22;0.80;;;13.10;73.20;;;;;;4954982;29;20074;-81
2023/04/03 13:29:15;;;;;;;2.03;0.80;;;13.10;73.40;;;;;;4937778;29;20065;-81
2023/04/03 13:31:41;;;;;;;2.58;0.93;;;13.10;73.30;;;;;;4937423;29;20078;-81
2023/04/03 13:34:09;;;;;;;1.42;0.80;;;13.00;73.30;;;;;;4937581;29;20524;-81
2023/04/03 13:36:55;;;;;;;1.10;0.70;;;13.00;73.30;;;;;;4937530;29;20034;-81